Aérodrome :
LOGIN :

S'inscrire | Disclaimer

   EN    FR    IT 

 










Légende :    VFR   VFR Marginal   IFR   IFR Intensif   IFR Très Intensif
Visi : 
Plafond : 
>= 8 km
>= 3000ft
5 à 8 km
1000 à 3000 ft
1500m à 5 km
500 à 1000 ft
800 à 1500m
200 à 500 ft
< 800m
< 200 ft
Symboles :   Orages  Brouillard  Fortes neiges  Fortes précipitations  Vent > 20 kt
SIGMETs :   Divers  Orages  Givrage  Turbulence  Onde Orograph.  Cendres Volcan.






- Altitude de l'aérodrome : 202 ft
- Code IATA : LGW


EGKK - London Gatwick

DERNIER METAR :
  • 060550Z 23014KT 6000 -RA BKN008 11/11 Q1009

METARs EXPIRÉS :
  • 060520Z 23016KT 9000 -RA SCT008 11/11 Q1009
  • 060450Z 22015KT 6000 -RA SCT006 BKN010 11/11 Q1009
  • 060420Z 23013KT 7000 -RA BKN007 11/11 Q1009
  • 060350Z 22012KT 8000 BKN006 11/10 Q1010
  • 060320Z 22013KT 6000 -RADZ BKN006 11/10 Q1010
  • 060250Z 22012KT 6000 -RA SCT005 BKN009 10/10 Q1011

TAF TAF EGKK
Valide du 06 à 06h jusqu'au 07 à 12h UTC


060456Z 0606/0712 23014KT 9999 BKN010
TEMPO 0606/0619 25017G27KT
TEMPO 0606/0614 7000 -RA BKN006
PROB40
TEMPO 0606/0614 3000 RADZ BKN004
BECMG 0613/0615 SCT025
TEMPO 0614/0619 7000 SHRA
PROB30
TEMPO 0614/0619 4000 +SHRA BKN014



MET'MAP, la Météo Aéronautique d'un coup d'oeil ! - Copyright ORBIFLY Décembre 2007 - Disclaimer

ORBIFLY MET'MAP TEAM :

Programmation & Développement : Alexandra Zaïnal
Sur une idée originale de : Baudouin d'Aumeries
Assistance à la programmation : Marc-Olivier Méhu
Soutien technique & logistique : Manuel Goepfert

Contact : metmap@orbifly.com




SOURCES & CREDITS :

   NOAA